sensor_id;sensor_type;location;lat;lon;timestamp;temperature;humidity
38910;DHT22;24676;51.360;12.354;2024-02-21T00:00:58;8.30;99.90
38910;DHT22;24676;51.360;12.354;2024-02-21T00:03:42;8.30;99.90
38910;DHT22;24676;51.360;12.354;2024-02-21T00:06:26;8.30;99.90
38910;DHT22;24676;51.360;12.354;2024-02-21T00:09:10;8.30;99.90
38910;DHT22;24676;51.360;12.354;2024-02-21T00:11:54;8.30;99.90
38910;DHT22;24676;51.360;12.354;2024-02-21T00:14:39;8.30;99.90
38910;DHT22;24676;51.360;12.354;2024-02-21T00:17:23;8.30;99.90
38910;DHT22;24676;51.360;12.354;2024-02-21T00:20:07;8.20;99.90
38910;DHT22;24676;51.360;12.354;2024-02-21T00:22:51;8.20;99.90
38910;DHT22;24676;51.360;12.354;2024-02-21T00:25:36;8.20;99.90
38910;DHT22;24676;51.360;12.354;2024-02-21T00:28:20;8.20;99.90
38910;DHT22;24676;51.360;12.354;2024-02-21T00:31:04;8.20;99.90
38910;DHT22;24676;51.360;12.354;2024-02-21T00:33:49;8.10;99.90
38910;DHT22;24676;51.360;12.354;2024-02-21T00:36:34;8.10;99.90
38910;DHT22;24676;51.360;12.354;2024-02-21T00:39:18;8.10;99.90
38910;DHT22;24676;51.360;12.354;2024-02-21T00:42:02;8.10;99.90
38910;DHT22;24676;51.360;12.354;2024-02-21T00:44:46;8.10;99.90
38910;DHT22;24676;51.360;12.354;2024-02-21T00:47:31;8.10;99.90
38910;DHT22;24676;51.360;12.354;2024-02-21T00:50:15;8.10;99.90
38910;DHT22;24676;51.360;12.354;2024-02-21T00:52:59;8.10;99.90
38910;DHT22;24676;51.360;12.354;2024-02-21T00:55:43;8.10;99.90
38910;DHT22;24676;51.360;12.354;2024-02-21T00:58:27;8.10;99.90
38910;DHT22;24676;51.360;12.354;2024-02-21T01:01:11;8.10;99.90
38910;DHT22;24676;51.360;12.354;2024-02-21T01:03:56;8.10;99.90
38910;DHT22;24676;51.360;12.354;2024-02-21T01:06:40;8.00;99.90
38910;DHT22;24676;51.360;12.354;2024-02-21T01:09:26;8.00;99.90
38910;DHT22;24676;51.360;12.354;2024-02-21T01:12:11;8.00;99.90
38910;DHT22;24676;51.360;12.354;2024-02-21T01:14:55;8.00;99.90
38910;DHT22;24676;51.360;12.354;2024-02-21T01:17:39;8.00;99.90
38910;DHT22;24676;51.360;12.354;2024-02-21T01:20:24;8.00;99.90
38910;DHT22;24676;51.360;12.354;2024-02-21T01:23:08;8.00;99.90
38910;DHT22;24676;51.360;12.354;2024-02-21T01:25:52;8.00;99.90
38910;DHT22;24676;51.360;12.354;2024-02-21T01:28:38;8.00;99.90
38910;DHT22;24676;51.360;12.354;2024-02-21T01:31:22;8.00;99.90
38910;DHT22;24676;51.360;12.354;2024-02-21T01:34:06;8.00;99.90
38910;DHT22;24676;51.360;12.354;2024-02-21T01:36:50;8.10;99.90
38910;DHT22;24676;51.360;12.354;2024-02-21T01:39:34;8.10;99.90
38910;DHT22;24676;51.360;12.354;2024-02-21T01:42:18;8.10;99.90
38910;DHT22;24676;51.360;12.354;2024-02-21T01:45:02;8.20;99.90
38910;DHT22;24676;51.360;12.354;2024-02-21T01:47:47;8.10;99.90
38910;DHT22;24676;51.360;12.354;2024-02-21T01:50:31;8.20;99.90
38910;DHT22;24676;51.360;12.354;2024-02-21T01:53:20;8.20;99.90
38910;DHT22;24676;51.360;12.354;2024-02-21T01:56:05;8.10;99.90
38910;DHT22;24676;51.360;12.354;2024-02-21T01:58:49;8.10;99.90
38910;DHT22;24676;51.360;12.354;2024-02-21T02:01:34;8.10;99.90
38910;DHT22;24676;51.360;12.354;2024-02-21T02:04:20;8.20;99.90
38910;DHT22;24676;51.360;12.354;2024-02-21T02:07:04;8.20;99.90
38910;DHT22;24676;51.360;12.354;2024-02-21T02:09:50;8.20;99.90
38910;DHT22;24676;51.360;12.354;2024-02-21T02:12:34;8.20;99.90
38910;DHT22;24676;51.360;12.354;2024-02-21T02:15:19;8.20;99.90
38910;DHT22;24676;51.360;12.354;2024-02-21T02:18:03;8.20;99.90
38910;DHT22;24676;51.360;12.354;2024-02-21T02:20:47;8.20;99.90
38910;DHT22;24676;51.360;12.354;2024-02-21T02:23:31;8.20;99.90
38910;DHT22;24676;51.360;12.354;2024-02-21T02:26:16;8.20;99.90
38910;DHT22;24676;51.360;12.354;2024-02-21T02:29:01;8.20;99.90
38910;DHT22;24676;51.360;12.354;2024-02-21T02:31:45;8.10;99.90
38910;DHT22;24676;51.360;12.354;2024-02-21T02:34:30;8.10;99.90
38910;DHT22;24676;51.360;12.354;2024-02-21T02:37:14;8.10;99.90
38910;DHT22;24676;51.360;12.354;2024-02-21T02:39:58;8.10;99.90
38910;DHT22;24676;51.360;12.354;2024-02-21T02:42:43;8.10;99.90
38910;DHT22;24676;51.360;12.354;2024-02-21T02:45:27;8.10;99.90
38910;DHT22;24676;51.360;12.354;2024-02-21T02:48:11;8.10;99.90
38910;DHT22;24676;51.360;12.354;2024-02-21T02:50:55;8.10;99.90
38910;DHT22;24676;51.360;12.354;2024-02-21T02:53:40;8.10;99.90
38910;DHT22;24676;51.360;12.354;2024-02-21T02:56:24;8.10;99.90
38910;DHT22;24676;51.360;12.354;2024-02-21T02:59:08;8.10;99.90
38910;DHT22;24676;51.360;12.354;2024-02-21T03:01:52;8.10;99.90
38910;DHT22;24676;51.360;12.354;2024-02-21T03:04:39;8.10;99.90
38910;DHT22;24676;51.360;12.354;2024-02-21T03:07:23;8.10;99.90
38910;DHT22;24676;51.360;12.354;2024-02-21T03:10:08;8.10;99.90
38910;DHT22;24676;51.360;12.354;2024-02-21T03:12:52;8.10;99.90
38910;DHT22;24676;51.360;12.354;2024-02-21T03:15:37;8.10;99.90
38910;DHT22;24676;51.360;12.354;2024-02-21T03:18:21;8.10;99.90
38910;DHT22;24676;51.360;12.354;2024-02-21T03:21:05;8.00;99.90
38910;DHT22;24676;51.360;12.354;2024-02-21T03:23:49;8.10;99.90
38910;DHT22;24676;51.360;12.354;2024-02-21T03:26:34;8.00;99.90
38910;DHT22;24676;51.360;12.354;2024-02-21T03:29:18;8.10;99.90
38910;DHT22;24676;51.360;12.354;2024-02-21T03:32:02;8.10;99.90
38910;DHT22;24676;51.360;12.354;2024-02-21T03:34:46;8.10;99.90
38910;DHT22;24676;51.360;12.354;2024-02-21T03:37:30;8.10;99.90
38910;DHT22;24676;51.360;12.354;2024-02-21T03:40:14;8.10;99.90
38910;DHT22;24676;51.360;12.354;2024-02-21T03:42:59;8.20;99.90
38910;DHT22;24676;51.360;12.354;2024-02-21T03:45:43;8.20;99.90
38910;DHT22;24676;51.360;12.354;2024-02-21T03:48:27;8.20;99.90
38910;DHT22;24676;51.360;12.354;2024-02-21T03:51:11;8.20;99.90
38910;DHT22;24676;51.360;12.354;2024-02-21T03:53:56;8.20;99.90
38910;DHT22;24676;51.360;12.354;2024-02-21T03:56:40;8.10;99.90
38910;DHT22;24676;51.360;12.354;2024-02-21T03:59:24;8.10;99.90
38910;DHT22;24676;51.360;12.354;2024-02-21T04:02:08;8.20;99.90
38910;DHT22;24676;51.360;12.354;2024-02-21T04:04:52;8.20;99.90
38910;DHT22;24676;51.360;12.354;2024-02-21T04:07:37;8.20;99.90
38910;DHT22;24676;51.360;12.354;2024-02-21T04:10:21;8.20;99.90
38910;DHT22;24676;51.360;12.354;2024-02-21T04:13:06;8.10;99.90
38910;DHT22;24676;51.360;12.354;2024-02-21T04:15:50;8.10;99.90
38910;DHT22;24676;51.360;12.354;2024-02-21T04:18:34;8.10;99.90
38910;DHT22;24676;51.360;12.354;2024-02-21T04:21:18;8.10;99.90
38910;DHT22;24676;51.360;12.354;2024-02-21T04:24:03;8.10;99.90
38910;DHT22;24676;51.360;12.354;2024-02-21T04:26:49;8.10;99.90
38910;DHT22;24676;51.360;12.354;2024-02-21T04:29:33;8.10;99.90
38910;DHT22;24676;51.360;12.354;2024-02-21T04:32:18;8.10;99.90
38910;DHT22;24676;51.360;12.354;2024-02-21T04:35:02;8.10;99.90
38910;DHT22;24676;51.360;12.354;2024-02-21T04:37:46;8.10;99.90
38910;DHT22;24676;51.360;12.354;2024-02-21T04:40:30;8.10;99.90
38910;DHT22;24676;51.360;12.354;2024-02-21T04:43:14;8.20;99.90
38910;DHT22;24676;51.360;12.354;2024-02-21T04:45:59;8.20;99.90
38910;DHT22;24676;51.360;12.354;2024-02-21T04:48:44;8.20;99.90
38910;DHT22;24676;51.360;12.354;2024-02-21T04:51:28;8.10;99.90
38910;DHT22;24676;51.360;12.354;2024-02-21T04:54:12;8.10;99.90
38910;DHT22;24676;51.360;12.354;2024-02-21T04:56:56;8.10;99.90
38910;DHT22;24676;51.360;12.354;2024-02-21T04:59:41;8.10;99.90
38910;DHT22;24676;51.360;12.354;2024-02-21T05:02:25;8.10;99.90
38910;DHT22;24676;51.360;12.354;2024-02-21T05:05:10;8.00;99.90
38910;DHT22;24676;51.360;12.354;2024-02-21T05:07:54;8.10;99.90
38910;DHT22;24676;51.360;12.354;2024-02-21T05:10:38;8.00;99.90
38910;DHT22;24676;51.360;12.354;2024-02-21T05:13:22;8.00;99.90
38910;DHT22;24676;51.360;12.354;2024-02-21T05:16:07;8.10;99.90
38910;DHT22;24676;51.360;12.354;2024-02-21T05:18:51;8.10;99.90
38910;DHT22;24676;51.360;12.354;2024-02-21T05:21:35;8.10;99.90
38910;DHT22;24676;51.360;12.354;2024-02-21T05:24:19;8.10;99.90
38910;DHT22;24676;51.360;12.354;2024-02-21T05:27:04;8.10;99.90
38910;DHT22;24676;51.360;12.354;2024-02-21T05:29:48;8.10;99.90
38910;DHT22;24676;51.360;12.354;2024-02-21T05:32:33;8.10;99.90
38910;DHT22;24676;51.360;12.354;2024-02-21T05:35:17;8.10;99.90
38910;DHT22;24676;51.360;12.354;2024-02-21T05:38:01;8.10;99.90
38910;DHT22;24676;51.360;12.354;2024-02-21T05:40:48;8.10;99.90
38910;DHT22;24676;51.360;12.354;2024-02-21T05:43:32;8.10;99.90
38910;DHT22;24676;51.360;12.354;2024-02-21T05:46:19;8.10;99.90
38910;DHT22;24676;51.360;12.354;2024-02-21T05:49:03;8.10;99.90
38910;DHT22;24676;51.360;12.354;2024-02-21T05:51:47;8.10;99.90
38910;DHT22;24676;51.360;12.354;2024-02-21T05:54:31;8.10;99.90
38910;DHT22;24676;51.360;12.354;2024-02-21T05:57:17;8.10;99.90
38910;DHT22;24676;51.360;12.354;2024-02-21T06:00:03;8.10;99.90
38910;DHT22;24676;51.360;12.354;2024-02-21T06:02:47;8.10;99.90
38910;DHT22;24676;51.360;12.354;2024-02-21T06:05:31;8.10;99.90
38910;DHT22;24676;51.360;12.354;2024-02-21T06:08:15;8.00;99.90
38910;DHT22;24676;51.360;12.354;2024-02-21T06:11:01;7.90;99.90
38910;DHT22;24676;51.360;12.354;2024-02-21T06:13:45;7.90;99.90
38910;DHT22;24676;51.360;12.354;2024-02-21T06:16:29;7.70;99.90
38910;DHT22;24676;51.360;12.354;2024-02-21T06:19:14;7.60;99.90
38910;DHT22;24676;51.360;12.354;2024-02-21T06:21:58;7.50;99.90
38910;DHT22;24676;51.360;12.354;2024-02-21T06:24:42;7.50;99.90
38910;DHT22;24676;51.360;12.354;2024-02-21T06:27:27;7.40;99.90
38910;DHT22;24676;51.360;12.354;2024-02-21T06:30:11;7.40;99.90
38910;DHT22;24676;51.360;12.354;2024-02-21T06:32:55;7.50;99.90
38910;DHT22;24676;51.360;12.354;2024-02-21T06:35:39;7.50;99.90
38910;DHT22;24676;51.360;12.354;2024-02-21T06:38:25;7.60;99.90
38910;DHT22;24676;51.360;12.354;2024-02-21T06:41:16;7.60;99.90
38910;DHT22;24676;51.360;12.354;2024-02-21T06:44:01;7.70;99.90
38910;DHT22;24676;51.360;12.354;2024-02-21T06:46:46;7.70;99.90
38910;DHT22;24676;51.360;12.354;2024-02-21T06:49:30;7.80;99.90
38910;DHT22;24676;51.360;12.354;2024-02-21T06:52:14;7.80;99.90
38910;DHT22;24676;51.360;12.354;2024-02-21T06:55:01;7.90;99.90
38910;DHT22;24676;51.360;12.354;2024-02-21T06:57:45;7.80;99.90
38910;DHT22;24676;51.360;12.354;2024-02-21T07:00:29;7.90;99.90
38910;DHT22;24676;51.360;12.354;2024-02-21T07:03:13;7.90;99.90
38910;DHT22;24676;51.360;12.354;2024-02-21T07:05:57;7.90;99.90
38910;DHT22;24676;51.360;12.354;2024-02-21T07:08:41;8.00;99.90
38910;DHT22;24676;51.360;12.354;2024-02-21T07:11:26;8.00;99.90
38910;DHT22;24676;51.360;12.354;2024-02-21T07:14:10;8.00;99.90
38910;DHT22;24676;51.360;12.354;2024-02-21T07:16:54;8.10;99.90
38910;DHT22;24676;51.360;12.354;2024-02-21T07:19:38;8.30;99.90
38910;DHT22;24676;51.360;12.354;2024-02-21T07:22:23;8.50;99.90
38910;DHT22;24676;51.360;12.354;2024-02-21T07:25:07;8.60;99.90
38910;DHT22;24676;51.360;12.354;2024-02-21T07:27:51;8.70;99.90
38910;DHT22;24676;51.360;12.354;2024-02-21T07:30:35;8.70;99.90
38910;DHT22;24676;51.360;12.354;2024-02-21T07:33:19;8.70;99.90
38910;DHT22;24676;51.360;12.354;2024-02-21T07:36:07;8.70;99.90
38910;DHT22;24676;51.360;12.354;2024-02-21T07:38:52;8.70;99.90
38910;DHT22;24676;51.360;12.354;2024-02-21T07:41:36;8.80;99.90
38910;DHT22;24676;51.360;12.354;2024-02-21T07:44:20;8.80;99.90
38910;DHT22;24676;51.360;12.354;2024-02-21T07:47:04;8.90;99.90
38910;DHT22;24676;51.360;12.354;2024-02-21T07:49:50;8.90;99.90
38910;DHT22;24676;51.360;12.354;2024-02-21T07:52:34;8.90;99.90
38910;DHT22;24676;51.360;12.354;2024-02-21T07:55:18;8.90;99.90
38910;DHT22;24676;51.360;12.354;2024-02-21T07:58:03;9.00;99.90
38910;DHT22;24676;51.360;12.354;2024-02-21T08:00:47;9.00;99.90
38910;DHT22;24676;51.360;12.354;2024-02-21T08:03:31;9.10;99.90
38910;DHT22;24676;51.360;12.354;2024-02-21T08:06:16;9.20;99.90
38910;DHT22;24676;51.360;12.354;2024-02-21T08:09:00;9.20;99.90
38910;DHT22;24676;51.360;12.354;2024-02-21T08:11:45;9.20;99.90
38910;DHT22;24676;51.360;12.354;2024-02-21T08:14:29;9.30;99.90
38910;DHT22;24676;51.360;12.354;2024-02-21T08:17:13;9.30;99.90
38910;DHT22;24676;51.360;12.354;2024-02-21T08:19:57;9.30;99.90
38910;DHT22;24676;51.360;12.354;2024-02-21T08:22:41;9.30;99.90
38910;DHT22;24676;51.360;12.354;2024-02-21T08:25:25;9.40;99.90
38910;DHT22;24676;51.360;12.354;2024-02-21T08:28:10;9.60;99.90
38910;DHT22;24676;51.360;12.354;2024-02-21T08:30:54;9.80;99.90
38910;DHT22;24676;51.360;12.354;2024-02-21T08:33:38;10.00;99.90
38910;DHT22;24676;51.360;12.354;2024-02-21T08:36:22;10.00;99.90
38910;DHT22;24676;51.360;12.354;2024-02-21T08:39:06;10.10;99.90
38910;DHT22;24676;51.360;12.354;2024-02-21T08:41:53;9.90;99.90
38910;DHT22;24676;51.360;12.354;2024-02-21T08:44:37;9.80;99.90
38910;DHT22;24676;51.360;12.354;2024-02-21T08:47:23;9.70;99.90
38910;DHT22;24676;51.360;12.354;2024-02-21T08:50:08;9.60;99.90
38910;DHT22;24676;51.360;12.354;2024-02-21T08:52:54;9.50;99.90
38910;DHT22;24676;51.360;12.354;2024-02-21T08:55:38;9.40;99.90
38910;DHT22;24676;51.360;12.354;2024-02-21T08:58:23;9.30;99.90
38910;DHT22;24676;51.360;12.354;2024-02-21T09:01:08;9.30;99.90
38910;DHT22;24676;51.360;12.354;2024-02-21T09:03:55;9.20;99.90
38910;DHT22;24676;51.360;12.354;2024-02-21T09:06:40;9.10;99.90
38910;DHT22;24676;51.360;12.354;2024-02-21T09:09:26;9.10;99.90
38910;DHT22;24676;51.360;12.354;2024-02-21T09:12:12;9.10;99.90
38910;DHT22;24676;51.360;12.354;2024-02-21T09:14:56;9.10;99.90
38910;DHT22;24676;51.360;12.354;2024-02-21T09:17:40;9.00;99.90
38910;DHT22;24676;51.360;12.354;2024-02-21T09:20:24;9.00;99.90
38910;DHT22;24676;51.360;12.354;2024-02-21T09:23:08;9.00;99.90
38910;DHT22;24676;51.360;12.354;2024-02-21T09:25:53;9.10;99.90
38910;DHT22;24676;51.360;12.354;2024-02-21T09:28:39;9.20;99.90
38910;DHT22;24676;51.360;12.354;2024-02-21T09:31:23;9.30;99.90
38910;DHT22;24676;51.360;12.354;2024-02-21T09:34:07;9.50;99.90
38910;DHT22;24676;51.360;12.354;2024-02-21T09:36:51;9.50;99.90
38910;DHT22;24676;51.360;12.354;2024-02-21T09:39:36;9.50;99.90
38910;DHT22;24676;51.360;12.354;2024-02-21T09:42:20;9.60;99.90
38910;DHT22;24676;51.360;12.354;2024-02-21T09:45:07;9.60;99.90
38910;DHT22;24676;51.360;12.354;2024-02-21T09:48:12;9.60;99.90
38910;DHT22;24676;51.360;12.354;2024-02-21T09:50:58;9.60;99.90
38910;DHT22;24676;51.360;12.354;2024-02-21T09:53:43;9.70;99.90
38910;DHT22;24676;51.360;12.354;2024-02-21T09:56:28;9.70;99.90
38910;DHT22;24676;51.360;12.354;2024-02-21T09:59:14;9.70;99.90
38910;DHT22;24676;51.360;12.354;2024-02-21T10:01:59;9.70;99.90
38910;DHT22;24676;51.360;12.354;2024-02-21T10:04:44;9.80;99.90
38910;DHT22;24676;51.360;12.354;2024-02-21T10:07:28;9.80;99.90
38910;DHT22;24676;51.360;12.354;2024-02-21T10:10:12;9.90;99.90
38910;DHT22;24676;51.360;12.354;2024-02-21T10:12:57;9.90;99.90
38910;DHT22;24676;51.360;12.354;2024-02-21T10:15:41;10.00;99.90
38910;DHT22;24676;51.360;12.354;2024-02-21T10:18:26;9.90;99.90
38910;DHT22;24676;51.360;12.354;2024-02-21T10:21:10;10.10;99.90
38910;DHT22;24676;51.360;12.354;2024-02-21T10:23:54;10.00;99.90
38910;DHT22;24676;51.360;12.354;2024-02-21T10:26:38;10.00;99.90
38910;DHT22;24676;51.360;12.354;2024-02-21T10:29:22;10.10;99.90
38910;DHT22;24676;51.360;12.354;2024-02-21T10:32:07;10.10;99.90
38910;DHT22;24676;51.360;12.354;2024-02-21T10:35:00;10.10;99.90
38910;DHT22;24676;51.360;12.354;2024-02-21T10:37:44;10.30;99.90
38910;DHT22;24676;51.360;12.354;2024-02-21T10:40:29;10.30;99.90
38910;DHT22;24676;51.360;12.354;2024-02-21T10:43:14;10.40;99.90
38910;DHT22;24676;51.360;12.354;2024-02-21T10:46:00;10.40;99.90
38910;DHT22;24676;51.360;12.354;2024-02-21T10:48:44;10.50;99.90
38910;DHT22;24676;51.360;12.354;2024-02-21T10:51:29;10.50;99.90
38910;DHT22;24676;51.360;12.354;2024-02-21T10:57:18;10.60;99.90
38910;DHT22;24676;51.360;12.354;2024-02-21T11:00:03;10.60;99.90
38910;DHT22;24676;51.360;12.354;2024-02-21T11:02:51;10.50;99.90
38910;DHT22;24676;51.360;12.354;2024-02-21T11:05:36;10.40;99.90
38910;DHT22;24676;51.360;12.354;2024-02-21T11:08:20;10.40;99.90
38910;DHT22;24676;51.360;12.354;2024-02-21T11:11:05;10.40;99.90
38910;DHT22;24676;51.360;12.354;2024-02-21T11:13:49;10.40;99.90
38910;DHT22;24676;51.360;12.354;2024-02-21T11:16:37;10.40;99.90
38910;DHT22;24676;51.360;12.354;2024-02-21T11:19:24;10.60;99.90
38910;DHT22;24676;51.360;12.354;2024-02-21T11:22:18;10.60;99.90
38910;DHT22;24676;51.360;12.354;2024-02-21T11:25:06;10.70;99.90
38910;DHT22;24676;51.360;12.354;2024-02-21T11:28:02;10.80;99.90
38910;DHT22;24676;51.360;12.354;2024-02-21T11:30:46;10.80;99.90
38910;DHT22;24676;51.360;12.354;2024-02-21T11:33:31;10.80;99.90
38910;DHT22;24676;51.360;12.354;2024-02-21T11:36:26;10.80;99.90
38910;DHT22;24676;51.360;12.354;2024-02-21T11:39:10;10.80;99.90
38910;DHT22;24676;51.360;12.354;2024-02-21T11:42:04;10.90;99.90
38910;DHT22;24676;51.360;12.354;2024-02-21T11:44:49;11.00;99.90
38910;DHT22;24676;51.360;12.354;2024-02-21T11:47:33;11.10;99.90
38910;DHT22;24676;51.360;12.354;2024-02-21T11:50:17;11.20;99.90
38910;DHT22;24676;51.360;12.354;2024-02-21T11:53:01;11.20;99.90
38910;DHT22;24676;51.360;12.354;2024-02-21T11:55:46;11.20;99.90
38910;DHT22;24676;51.360;12.354;2024-02-21T11:58:30;11.20;99.90
38910;DHT22;24676;51.360;12.354;2024-02-21T12:01:14;11.30;99.90
38910;DHT22;24676;51.360;12.354;2024-02-21T12:03:59;11.30;99.90
38910;DHT22;24676;51.360;12.354;2024-02-21T12:06:44;11.20;99.90
38910;DHT22;24676;51.360;12.354;2024-02-21T12:09:28;11.20;99.90
38910;DHT22;24676;51.360;12.354;2024-02-21T12:12:12;11.40;99.90
38910;DHT22;24676;51.360;12.354;2024-02-21T12:14:56;11.60;99.90
38910;DHT22;24676;51.360;12.354;2024-02-21T12:17:44;12.00;99.90
38910;DHT22;24676;51.360;12.354;2024-02-21T12:20:29;12.40;99.90
38910;DHT22;24676;51.360;12.354;2024-02-21T12:23:15;12.20;99.90
38910;DHT22;24676;51.360;12.354;2024-02-21T12:26:01;12.00;99.90
38910;DHT22;24676;51.360;12.354;2024-02-21T12:28:46;11.80;99.90
38910;DHT22;24676;51.360;12.354;2024-02-21T12:31:30;11.70;99.90
38910;DHT22;24676;51.360;12.354;2024-02-21T12:34:15;11.50;99.90
38910;DHT22;24676;51.360;12.354;2024-02-21T12:36:59;11.50;99.90
38910;DHT22;24676;51.360;12.354;2024-02-21T12:39:44;12.00;99.90
38910;DHT22;24676;51.360;12.354;2024-02-21T12:42:28;12.50;99.90
38910;DHT22;24676;51.360;12.354;2024-02-21T12:45:12;13.00;99.90
38910;DHT22;24676;51.360;12.354;2024-02-21T12:47:59;13.50;99.90
38910;DHT22;24676;51.360;12.354;2024-02-21T12:50:47;13.10;99.90
38910;DHT22;24676;51.360;12.354;2024-02-21T12:53:32;12.90;99.90
38910;DHT22;24676;51.360;12.354;2024-02-21T12:56:16;12.50;99.90
38910;DHT22;24676;51.360;12.354;2024-02-21T12:59:00;13.40;99.90
38910;DHT22;24676;51.360;12.354;2024-02-21T13:01:45;13.90;99.90
38910;DHT22;24676;51.360;12.354;2024-02-21T13:04:29;13.80;99.90
38910;DHT22;24676;51.360;12.354;2024-02-21T13:07:13;13.50;99.90
38910;DHT22;24676;51.360;12.354;2024-02-21T13:09:58;13.20;99.90
38910;DHT22;24676;51.360;12.354;2024-02-21T13:12:42;13.20;99.90
38910;DHT22;24676;51.360;12.354;2024-02-21T13:15:26;13.20;99.90
38910;DHT22;24676;51.360;12.354;2024-02-21T13:18:11;13.40;99.90
38910;DHT22;24676;51.360;12.354;2024-02-21T13:20:56;13.60;99.90
38910;DHT22;24676;51.360;12.354;2024-02-21T13:23:40;13.50;99.90
38910;DHT22;24676;51.360;12.354;2024-02-21T13:26:24;13.20;99.90
38910;DHT22;24676;51.360;12.354;2024-02-21T13:29:08;13.00;99.90
38910;DHT22;24676;51.360;12.354;2024-02-21T13:31:52;12.90;99.90
38910;DHT22;24676;51.360;12.354;2024-02-21T13:34:36;12.70;99.90
38910;DHT22;24676;51.360;12.354;2024-02-21T13:37:20;12.70;99.90
38910;DHT22;24676;51.360;12.354;2024-02-21T13:40:05;12.80;99.90
38910;DHT22;24676;51.360;12.354;2024-02-21T13:42:50;12.70;99.90
38910;DHT22;24676;51.360;12.354;2024-02-21T13:45:35;12.60;99.90
38910;DHT22;24676;51.360;12.354;2024-02-21T13:48:19;12.60;99.90
38910;DHT22;24676;51.360;12.354;2024-02-21T13:51:03;12.60;99.90
38910;DHT22;24676;51.360;12.354;2024-02-21T13:53:48;12.60;99.90
38910;DHT22;24676;51.360;12.354;2024-02-21T13:56:32;12.60;99.90
38910;DHT22;24676;51.360;12.354;2024-02-21T13:59:16;12.50;99.90
38910;DHT22;24676;51.360;12.354;2024-02-21T14:02:00;12.50;99.90
38910;DHT22;24676;51.360;12.354;2024-02-21T14:04:44;12.50;99.90
38910;DHT22;24676;51.360;12.354;2024-02-21T14:07:28;12.40;99.90
38910;DHT22;24676;51.360;12.354;2024-02-21T14:10:13;12.50;99.90
38910;DHT22;24676;51.360;12.354;2024-02-21T14:12:57;12.50;99.90
38910;DHT22;24676;51.360;12.354;2024-02-21T14:15:43;12.40;99.90
38910;DHT22;24676;51.360;12.354;2024-02-21T14:18:29;12.30;99.90
38910;DHT22;24676;51.360;12.354;2024-02-21T14:21:14;12.20;99.90
38910;DHT22;24676;51.360;12.354;2024-02-21T14:23:58;12.20;99.90
38910;DHT22;24676;51.360;12.354;2024-02-21T14:26:45;12.20;99.90
38910;DHT22;24676;51.360;12.354;2024-02-21T14:29:29;12.10;99.90
38910;DHT22;24676;51.360;12.354;2024-02-21T14:32:13;12.10;99.90
38910;DHT22;24676;51.360;12.354;2024-02-21T14:34:58;12.00;99.90
38910;DHT22;24676;51.360;12.354;2024-02-21T14:37:42;12.00;99.90
38910;DHT22;24676;51.360;12.354;2024-02-21T14:40:26;11.90;99.90
38910;DHT22;24676;51.360;12.354;2024-02-21T14:43:10;11.80;99.90
38910;DHT22;24676;51.360;12.354;2024-02-21T14:45:54;11.80;99.90
38910;DHT22;24676;51.360;12.354;2024-02-21T14:48:38;11.70;99.90
38910;DHT22;24676;51.360;12.354;2024-02-21T14:51:23;11.70;99.90
38910;DHT22;24676;51.360;12.354;2024-02-21T14:54:07;11.60;99.90
38910;DHT22;24676;51.360;12.354;2024-02-21T14:56:52;11.60;99.90
38910;DHT22;24676;51.360;12.354;2024-02-21T14:59:38;11.60;99.90
38910;DHT22;24676;51.360;12.354;2024-02-21T15:02:24;11.50;99.90
38910;DHT22;24676;51.360;12.354;2024-02-21T15:05:09;11.50;99.90
38910;DHT22;24676;51.360;12.354;2024-02-21T15:07:55;11.40;99.90
38910;DHT22;24676;51.360;12.354;2024-02-21T15:10:39;11.40;99.90
38910;DHT22;24676;51.360;12.354;2024-02-21T15:13:23;11.40;99.90
38910;DHT22;24676;51.360;12.354;2024-02-21T15:16:07;11.40;99.90
38910;DHT22;24676;51.360;12.354;2024-02-21T15:18:52;11.40;99.90
38910;DHT22;24676;51.360;12.354;2024-02-21T15:21:36;11.30;99.90
38910;DHT22;24676;51.360;12.354;2024-02-21T15:24:20;11.40;99.90
38910;DHT22;24676;51.360;12.354;2024-02-21T15:27:05;11.40;99.90
38910;DHT22;24676;51.360;12.354;2024-02-21T15:29:49;11.30;99.90
38910;DHT22;24676;51.360;12.354;2024-02-21T15:32:33;11.30;99.90
38910;DHT22;24676;51.360;12.354;2024-02-21T15:35:18;11.30;99.90
38910;DHT22;24676;51.360;12.354;2024-02-21T15:38:02;11.20;99.90
38910;DHT22;24676;51.360;12.354;2024-02-21T15:40:46;11.10;99.90
38910;DHT22;24676;51.360;12.354;2024-02-21T15:43:31;11.10;99.90
38910;DHT22;24676;51.360;12.354;2024-02-21T15:46:15;11.10;99.90
38910;DHT22;24676;51.360;12.354;2024-02-21T15:49:00;11.00;99.90
38910;DHT22;24676;51.360;12.354;2024-02-21T15:51:44;11.00;99.90
38910;DHT22;24676;51.360;12.354;2024-02-21T15:54:28;10.90;99.90
38910;DHT22;24676;51.360;12.354;2024-02-21T15:57:12;10.90;99.90
38910;DHT22;24676;51.360;12.354;2024-02-21T15:59:57;10.80;99.90
38910;DHT22;24676;51.360;12.354;2024-02-21T16:02:41;10.80;99.90
38910;DHT22;24676;51.360;12.354;2024-02-21T16:05:25;10.80;99.90
38910;DHT22;24676;51.360;12.354;2024-02-21T16:08:09;10.80;99.90
38910;DHT22;24676;51.360;12.354;2024-02-21T16:10:54;10.70;99.90
38910;DHT22;24676;51.360;12.354;2024-02-21T16:13:38;10.70;99.90
38910;DHT22;24676;51.360;12.354;2024-02-21T16:16:22;10.60;99.90
38910;DHT22;24676;51.360;12.354;2024-02-21T16:19:06;10.60;99.90
38910;DHT22;24676;51.360;12.354;2024-02-21T16:21:51;10.60;99.90
38910;DHT22;24676;51.360;12.354;2024-02-21T16:24:35;10.50;99.80
38910;DHT22;24676;51.360;12.354;2024-02-21T16:27:19;10.50;99.90
38910;DHT22;24676;51.360;12.354;2024-02-21T16:30:04;10.40;99.90
38910;DHT22;24676;51.360;12.354;2024-02-21T16:32:50;10.30;99.90
38910;DHT22;24676;51.360;12.354;2024-02-21T16:35:36;10.20;99.90
38910;DHT22;24676;51.360;12.354;2024-02-21T16:38:20;10.20;99.90
38910;DHT22;24676;51.360;12.354;2024-02-21T16:41:05;10.10;99.90
38910;DHT22;24676;51.360;12.354;2024-02-21T16:43:49;10.00;99.90
38910;DHT22;24676;51.360;12.354;2024-02-21T16:46:33;10.00;99.90
38910;DHT22;24676;51.360;12.354;2024-02-21T16:49:17;9.90;99.90
38910;DHT22;24676;51.360;12.354;2024-02-21T16:52:01;9.80;99.90
38910;DHT22;24676;51.360;12.354;2024-02-21T16:54:48;9.70;99.90
38910;DHT22;24676;51.360;12.354;2024-02-21T16:57:32;9.60;99.90
38910;DHT22;24676;51.360;12.354;2024-02-21T17:00:16;9.60;99.90
38910;DHT22;24676;51.360;12.354;2024-02-21T17:03:02;9.60;99.90
38910;DHT22;24676;51.360;12.354;2024-02-21T17:05:46;9.50;99.90
38910;DHT22;24676;51.360;12.354;2024-02-21T17:08:31;9.60;99.90
38910;DHT22;24676;51.360;12.354;2024-02-21T17:11:15;9.60;99.90
38910;DHT22;24676;51.360;12.354;2024-02-21T17:13:59;9.60;99.90
38910;DHT22;24676;51.360;12.354;2024-02-21T17:16:43;9.60;99.90